createdAt,value
2023-03-19T00:00:30.982Z,100080.00
2023-03-19T00:02:58.402Z,100084.00
2023-03-19T00:05:25.946Z,100084.00
2023-03-19T00:07:53.142Z,100080.00
2023-03-19T00:10:20.682Z,100077.00
2023-03-19T00:12:47.952Z,100076.00
2023-03-19T00:15:30.980Z,100068.00
2023-03-19T00:17:58.306Z,100073.00
2023-03-19T00:20:25.516Z,100087.00
2023-03-19T00:22:52.656Z,100079.00
2023-03-19T00:25:19.957Z,100080.00
2023-03-19T00:27:47.182Z,100081.00
2023-03-19T00:30:15.295Z,100081.00
2023-03-19T00:32:43.193Z,100077.00
2023-03-19T00:35:10.855Z,100076.00
2023-03-19T00:37:38.121Z,100075.00
2023-03-19T00:40:07.122Z,100083.00
2023-03-19T00:42:34.548Z,100076.00
2023-03-19T00:45:01.788Z,100078.00
2023-03-19T00:47:28.979Z,100084.00
2023-03-19T00:49:56.890Z,100083.00
2023-03-19T00:52:24.161Z,100084.00
2023-03-19T00:54:51.779Z,100089.00
2023-03-19T00:57:19.030Z,100079.00
2023-03-19T00:59:46.332Z,100075.00
2023-03-19T01:02:13.627Z,100090.00
2023-03-19T01:04:40.952Z,100087.00
2023-03-19T01:07:09.351Z,100086.00
2023-03-19T01:09:36.613Z,100083.00
2023-03-19T01:12:04.180Z,100097.00
2023-03-19T01:14:32.005Z,100093.00
2023-03-19T01:17:03.476Z,100087.00
2023-03-19T01:19:30.966Z,100075.00
2023-03-19T01:21:58.223Z,100085.00
2023-03-19T01:24:29.818Z,100085.00
2023-03-19T01:26:57.015Z,100083.00
2023-03-19T01:29:24.318Z,100073.00
2023-03-19T01:31:51.589Z,100073.00
2023-03-19T01:34:18.866Z,100078.00
2023-03-19T01:36:46.460Z,100079.00
2023-03-19T01:39:13.800Z,100079.00
2023-03-19T01:41:42.484Z,100076.00
2023-03-19T01:44:25.348Z,100077.00
2023-03-19T01:46:53.166Z,100064.00
2023-03-19T01:49:23.243Z,100068.00
2023-03-19T01:51:51.134Z,100064.00
2023-03-19T01:54:22.285Z,100075.00
2023-03-19T01:56:53.054Z,100058.00
2023-03-19T01:59:26.112Z,100054.00
2023-03-19T02:01:58.047Z,100054.00
2023-03-19T02:04:26.937Z,100061.00
2023-03-19T02:06:56.038Z,100063.00
2023-03-19T02:09:24.880Z,100047.00
2023-03-19T02:11:54.481Z,100058.00
2023-03-19T02:14:21.855Z,100052.00
2023-03-19T02:16:49.336Z,100052.00
2023-03-19T02:19:21.960Z,100067.00
2023-03-19T02:21:49.584Z,100059.00
2023-03-19T02:24:21.207Z,100061.00
2023-03-19T02:26:49.999Z,100059.00
2023-03-19T02:29:17.434Z,100058.00
2023-03-19T02:31:44.780Z,100062.00
2023-03-19T02:34:34.080Z,100073.00
2023-03-19T02:37:07.141Z,100080.00
2023-03-19T02:39:40.780Z,100073.00
2023-03-19T02:42:10.896Z,100067.00
2023-03-19T02:44:38.263Z,100069.00
2023-03-19T02:47:05.859Z,100063.00
2023-03-19T02:49:33.130Z,100066.00
2023-03-19T02:52:00.434Z,100068.00
2023-03-19T02:54:27.974Z,100076.00
2023-03-19T02:56:55.230Z,100075.00
2023-03-19T02:59:23.188Z,100081.00
2023-03-19T03:01:50.552Z,100087.00
2023-03-19T03:04:17.886Z,100090.00
2023-03-19T03:06:45.425Z,100093.00
2023-03-19T03:09:13.326Z,100092.00
2023-03-19T03:11:41.232Z,100092.00
2023-03-19T03:14:09.432Z,100082.00
2023-03-19T03:16:37.861Z,100085.00
2023-03-19T03:19:05.469Z,100080.00
2023-03-19T03:21:35.365Z,100080.00
2023-03-19T03:24:03.220Z,100082.00
2023-03-19T03:26:30.481Z,100076.00
2023-03-19T03:28:57.765Z,100076.00
2023-03-19T03:31:26.396Z,100059.00
2023-03-19T03:33:54.389Z,100068.00
2023-03-19T03:36:21.840Z,100078.00
2023-03-19T03:38:49.143Z,100079.00
2023-03-19T03:41:16.532Z,100082.00
2023-03-19T03:43:43.828Z,100083.00
2023-03-19T03:46:11.107Z,100082.00
2023-03-19T03:48:38.482Z,100084.00
2023-03-19T03:51:06.827Z,100090.00
2023-03-19T03:53:34.168Z,100077.00
2023-03-19T03:56:01.716Z,100079.00
2023-03-19T03:58:29.165Z,100083.00
2023-03-19T04:00:56.510Z,100088.00
2023-03-19T04:03:23.903Z,100087.00
2023-03-19T04:05:51.198Z,100085.00
2023-03-19T04:08:19.275Z,100083.00
2023-03-19T04:10:46.552Z,100067.00
2023-03-19T04:13:13.831Z,100087.00
2023-03-19T04:15:42.959Z,100076.00
2023-03-19T04:18:10.591Z,100080.00
2023-03-19T04:20:37.909Z,100067.00
2023-03-19T04:23:05.219Z,100065.00
2023-03-19T04:25:33.255Z,100069.00
2023-03-19T04:28:00.502Z,100080.00
2023-03-19T04:30:28.335Z,100067.00
2023-03-19T04:32:55.994Z,100069.00
2023-03-19T04:35:23.332Z,100068.00
2023-03-19T04:37:50.968Z,100077.00
2023-03-19T04:40:18.683Z,100075.00
2023-03-19T04:42:46.684Z,100087.00
2023-03-19T04:45:14.125Z,100086.00
2023-03-19T04:47:41.874Z,100084.00
2023-03-19T04:50:10.214Z,100082.00
2023-03-19T04:52:37.629Z,100092.00
2023-03-19T04:55:05.801Z,100082.00
2023-03-19T04:57:33.064Z,100086.00
2023-03-19T05:00:01.019Z,100089.00
2023-03-19T05:02:28.366Z,100095.00
2023-03-19T05:04:55.632Z,100091.00
2023-03-19T05:07:23.026Z,100083.00
2023-03-19T05:09:50.300Z,100086.00
2023-03-19T05:12:17.644Z,100087.00
2023-03-19T05:14:45.300Z,100088.00
2023-03-19T05:17:14.894Z,100073.00
2023-03-19T05:19:42.819Z,100085.00
2023-03-19T05:22:10.325Z,100078.00
2023-03-19T05:24:37.838Z,100085.00
2023-03-19T05:27:05.902Z,100092.00
2023-03-19T05:29:33.460Z,100089.00
2023-03-19T05:32:02.413Z,100099.00
2023-03-19T05:34:31.110Z,100098.00
2023-03-19T05:36:58.439Z,100100.00
2023-03-19T05:39:25.758Z,100105.00
2023-03-19T05:41:53.115Z,100097.00
2023-03-19T05:44:20.801Z,100095.00
2023-03-19T05:46:48.290Z,100090.00
2023-03-19T05:49:15.601Z,100100.00
2023-03-19T05:51:43.511Z,100103.00
2023-03-19T05:54:10.760Z,100101.00
2023-03-19T05:56:38.019Z,100097.00
2023-03-19T05:59:05.990Z,100101.00
2023-03-19T06:01:33.426Z,100107.00
2023-03-19T06:04:00.740Z,100090.00
2023-03-19T06:06:28.112Z,100108.00
2023-03-19T06:08:56.096Z,100105.00
2023-03-19T06:11:23.388Z,100105.00
2023-03-19T06:13:51.061Z,100112.00
2023-03-19T06:16:18.651Z,100115.00
2023-03-19T06:18:48.018Z,100105.00
2023-03-19T06:21:15.836Z,100114.00
2023-03-19T06:23:43.186Z,100117.00
2023-03-19T06:26:11.104Z,100114.00
2023-03-19T06:28:38.425Z,100119.00
2023-03-19T06:31:05.871Z,100119.00
2023-03-19T06:33:33.229Z,100111.00
2023-03-19T06:36:00.950Z,100113.00
2023-03-19T06:38:28.484Z,100111.00
2023-03-19T06:40:55.795Z,100118.00
2023-03-19T06:43:23.806Z,100119.00
2023-03-19T06:45:51.363Z,100120.00
2023-03-19T06:48:18.713Z,100114.00
2023-03-19T06:50:46.054Z,100133.00
2023-03-19T06:53:13.576Z,100126.00
2023-03-19T06:55:40.950Z,100127.00
2023-03-19T06:58:08.158Z,100130.00
2023-03-19T07:00:36.588Z,100132.00
2023-03-19T07:03:04.149Z,100133.00
2023-03-19T07:05:31.430Z,100135.00
2023-03-19T07:07:58.757Z,100138.00
2023-03-19T07:10:26.056Z,100146.00
2023-03-19T07:12:53.322Z,100147.00
2023-03-19T07:15:20.992Z,100149.00
2023-03-19T07:17:49.233Z,100146.00
2023-03-19T07:20:17.028Z,100142.00
2023-03-19T07:22:44.320Z,100155.00
2023-03-19T07:25:11.541Z,100155.00
2023-03-19T07:27:38.831Z,100159.00
2023-03-19T07:30:07.022Z,100156.00
2023-03-19T07:32:34.341Z,100153.00
2023-03-19T07:35:02.430Z,100166.00
2023-03-19T07:37:29.702Z,100163.00
2023-03-19T07:39:57.198Z,100173.00
2023-03-19T07:42:24.524Z,100156.00
2023-03-19T07:44:51.811Z,100168.00
2023-03-19T07:47:28.620Z,100159.00
2023-03-19T07:49:56.739Z,100164.00
2023-03-19T07:52:25.193Z,100155.00
2023-03-19T07:54:52.480Z,100163.00
2023-03-19T07:57:20.260Z,100150.00
2023-03-19T07:59:47.559Z,100163.00
2023-03-19T08:02:15.116Z,100147.00
2023-03-19T08:04:42.695Z,100158.00
2023-03-19T08:07:11.982Z,100155.00
2023-03-19T08:09:40.392Z,100157.00
2023-03-19T08:12:08.534Z,100163.00
2023-03-19T08:14:36.020Z,100164.00
2023-03-19T08:17:03.314Z,100156.00
2023-03-19T08:19:31.160Z,100158.00
2023-03-19T08:21:58.614Z,100158.00
2023-03-19T08:24:26.087Z,100162.00
2023-03-19T08:26:54.048Z,100160.00
2023-03-19T08:29:21.382Z,100162.00
2023-03-19T08:31:48.668Z,100170.00
2023-03-19T08:34:16.371Z,100176.00
2023-03-19T08:36:43.749Z,100167.00
2023-03-19T08:39:11.156Z,100165.00
2023-03-19T08:41:38.405Z,100154.00
2023-03-19T08:44:06.493Z,100154.00
2023-03-19T08:46:33.951Z,100158.00
2023-03-19T08:49:01.358Z,100161.00
2023-03-19T08:51:30.381Z,100160.00
2023-03-19T08:53:57.701Z,100165.00
2023-03-19T08:56:25.031Z,100162.00
2023-03-19T08:58:52.324Z,100165.00
2023-03-19T09:01:20.760Z,100162.00
2023-03-19T09:03:48.313Z,100175.00
2023-03-19T09:06:15.987Z,100166.00
2023-03-19T09:08:44.019Z,100162.00
2023-03-19T09:11:13.711Z,100169.00
2023-03-19T09:13:41.093Z,100162.00
2023-03-19T09:16:08.548Z,100174.00
2023-03-19T09:18:36.703Z,100172.00
2023-03-19T09:21:04.396Z,100175.00
2023-03-19T09:23:31.697Z,100174.00
2023-03-19T09:25:58.972Z,100178.00
2023-03-19T09:28:26.424Z,100170.00
2023-03-19T09:30:53.750Z,100168.00
2023-03-19T09:33:21.746Z,100176.00
2023-03-19T09:35:54.178Z,100172.00
2023-03-19T09:38:22.245Z,100176.00
2023-03-19T09:41:00.580Z,100177.00
2023-03-19T09:43:46.174Z,100171.00
2023-03-19T09:46:18.715Z,100171.00
2023-03-19T09:48:49.803Z,100162.00
2023-03-19T09:51:21.587Z,100162.00
2023-03-19T09:53:55.813Z,100155.00
2023-03-19T09:56:24.348Z,100157.00
2023-03-19T09:58:52.097Z,100153.00
2023-03-19T10:01:26.171Z,100158.00
2023-03-19T10:04:25.527Z,100159.00
2023-03-19T10:06:59.395Z,100157.00
2023-03-19T10:09:38.992Z,100166.00
2023-03-19T10:12:17.111Z,100163.00
2023-03-19T10:15:01.646Z,100148.00
2023-03-19T10:17:33.228Z,100157.00
2023-03-19T10:20:08.029Z,100157.00
2023-03-19T10:22:41.717Z,100161.00
2023-03-19T10:25:13.358Z,100168.00
2023-03-19T10:27:41.497Z,100159.00
2023-03-19T10:30:15.835Z,100159.00
2023-03-19T10:32:45.884Z,100158.00
2023-03-19T10:35:20.004Z,100159.00
2023-03-19T10:37:49.919Z,100169.00
2023-03-19T10:40:24.023Z,100173.00
2023-03-19T10:43:03.976Z,100178.00
2023-03-19T10:45:34.115Z,100172.00
2023-03-19T10:48:03.863Z,100174.00
2023-03-19T10:50:34.837Z,100174.00
2023-03-19T10:53:08.033Z,100165.00
2023-03-19T10:55:35.846Z,100174.00
2023-03-19T10:58:06.484Z,100170.00
2023-03-19T11:00:35.338Z,100164.00
2023-03-19T11:03:04.682Z,100167.00
2023-03-19T11:05:33.475Z,100163.00
2023-03-19T11:08:04.098Z,100165.00
2023-03-19T11:10:33.734Z,100166.00
2023-03-19T11:13:04.932Z,100159.00
2023-03-19T11:15:36.727Z,100173.00
2023-03-19T11:18:14.929Z,100170.00
2023-03-19T11:20:42.976Z,100175.00
2023-03-19T11:23:16.639Z,100172.00
2023-03-19T11:25:51.163Z,100169.00
2023-03-19T11:28:24.844Z,100167.00
2023-03-19T11:31:00.318Z,100161.00
2023-03-19T11:33:51.420Z,100157.00
2023-03-19T11:36:22.592Z,100163.00
2023-03-19T11:39:05.506Z,100155.00
2023-03-19T11:41:46.792Z,100157.00
2023-03-19T11:44:18.247Z,100149.00
2023-03-19T11:46:54.925Z,100151.00
2023-03-19T11:49:49.065Z,100147.00
2023-03-19T11:52:22.877Z,100152.00
2023-03-19T11:55:11.728Z,100147.00
2023-03-19T11:57:57.807Z,100152.00
2023-03-19T12:00:32.854Z,100150.00
2023-03-19T12:03:28.178Z,100142.00
2023-03-19T12:05:59.608Z,100141.00
2023-03-19T12:08:37.163Z,100139.00
2023-03-19T12:11:16.645Z,100141.00
2023-03-19T12:13:57.044Z,100141.00
2023-03-19T12:16:46.252Z,100141.00
2023-03-19T12:19:48.941Z,100141.00
2023-03-19T12:22:31.523Z,100143.00
2023-03-19T12:25:11.983Z,100134.00
2023-03-19T12:27:47.682Z,100143.00
2023-03-19T12:30:24.986Z,100141.00
2023-03-19T12:33:08.188Z,100137.00
2023-03-19T12:35:38.506Z,100142.00
2023-03-19T12:38:11.909Z,100143.00
2023-03-19T12:40:45.273Z,100139.00
2023-03-19T12:43:24.301Z,100139.00
2023-03-19T12:45:58.200Z,100136.00
2023-03-19T12:48:30.551Z,100127.00
2023-03-19T12:51:03.182Z,100130.00
2023-03-19T12:53:35.475Z,100130.00
2023-03-19T12:56:08.867Z,100135.00
2023-03-19T12:58:49.139Z,100126.00
2023-03-19T13:01:24.017Z,100134.00
2023-03-19T13:04:00.306Z,100133.00
2023-03-19T13:06:31.555Z,100134.00
2023-03-19T13:09:05.133Z,100136.00
2023-03-19T13:11:42.121Z,100134.00
2023-03-19T13:14:19.736Z,100140.00
2023-03-19T13:16:53.104Z,100137.00
2023-03-19T13:19:29.728Z,100135.00
2023-03-19T13:22:02.244Z,100142.00
2023-03-19T13:24:36.736Z,100147.00
2023-03-19T13:27:09.983Z,100149.00
2023-03-19T13:29:52.796Z,100156.00
2023-03-19T13:32:25.991Z,100132.00
2023-03-19T13:35:16.161Z,100139.00
2023-03-19T13:37:45.895Z,100140.00
2023-03-19T13:40:38.762Z,100140.00
2023-03-19T13:43:28.366Z,100140.00
2023-03-19T13:46:05.676Z,100141.00
2023-03-19T13:48:38.429Z,100136.00
2023-03-19T13:51:24.630Z,100134.00
2023-03-19T13:54:04.226Z,100132.00
2023-03-19T13:56:55.205Z,100133.00
2023-03-19T13:59:27.718Z,100141.00
2023-03-19T14:01:56.400Z,100135.00
2023-03-19T14:04:28.534Z,100133.00
2023-03-19T14:06:58.906Z,100139.00
2023-03-19T14:09:35.987Z,100131.00
2023-03-19T14:12:12.274Z,100137.00
2023-03-19T14:14:42.476Z,100132.00
2023-03-19T14:17:16.533Z,100137.00
2023-03-19T14:19:44.277Z,100131.00
2023-03-19T14:22:21.313Z,100125.00
2023-03-19T14:25:12.596Z,100141.00
2023-03-19T14:27:47.515Z,100135.00
2023-03-19T14:30:26.451Z,100135.00
2023-03-19T14:32:57.691Z,100129.00
2023-03-19T14:35:26.581Z,100123.00
2023-03-19T14:37:57.719Z,100135.00
2023-03-19T14:40:33.764Z,100138.00
2023-03-19T14:43:10.511Z,100143.00
2023-03-19T14:45:50.653Z,100138.00
2023-03-19T14:49:08.068Z,100150.00
2023-03-19T14:51:57.269Z,100136.00
2023-03-19T14:54:33.691Z,100146.00
2023-03-19T14:57:07.506Z,100141.00
2023-03-19T14:59:39.031Z,100144.00
2023-03-19T15:02:26.430Z,100156.00
2023-03-19T15:04:55.512Z,100148.00
2023-03-19T15:07:29.997Z,100148.00
2023-03-19T15:10:05.336Z,100151.00
2023-03-19T15:12:53.917Z,100157.00
2023-03-19T15:15:34.560Z,100154.00
2023-03-19T15:18:04.748Z,100156.00
2023-03-19T15:20:36.947Z,100153.00
2023-03-19T15:23:13.534Z,100157.00
2023-03-19T15:25:56.106Z,100155.00
2023-03-19T15:28:24.028Z,100161.00
2023-03-19T15:31:03.419Z,100162.00
2023-03-19T15:33:43.404Z,100164.00
2023-03-19T15:36:17.937Z,100161.00
2023-03-19T15:38:49.223Z,100165.00
2023-03-19T15:41:18.421Z,100166.00
2023-03-19T15:43:46.430Z,100167.00
2023-03-19T15:46:18.444Z,100173.00
2023-03-19T15:48:50.813Z,100168.00
2023-03-19T15:51:22.257Z,100177.00
2023-03-19T15:53:50.274Z,100170.00
2023-03-19T15:56:19.044Z,100178.00
2023-03-19T15:58:51.377Z,100173.00
2023-03-19T16:01:21.082Z,100178.00
2023-03-19T16:03:54.987Z,100183.00
2023-03-19T16:06:27.300Z,100184.00
2023-03-19T16:08:56.778Z,100181.00
2023-03-19T16:11:30.130Z,100197.00
2023-03-19T16:13:58.691Z,100193.00
2023-03-19T16:16:30.011Z,100188.00
2023-03-19T16:18:58.363Z,100194.00
2023-03-19T16:21:33.570Z,100197.00
2023-03-19T16:24:02.648Z,100200.00
2023-03-19T16:26:37.214Z,100197.00
2023-03-19T16:29:16.217Z,100201.00
2023-03-19T16:31:45.624Z,100203.00
2023-03-19T16:34:32.224Z,100214.00
2023-03-19T16:37:00.713Z,100208.00
2023-03-19T16:39:34.321Z,100211.00
2023-03-19T16:42:25.647Z,100215.00
2023-03-19T16:44:52.978Z,100222.00
2023-03-19T16:47:22.288Z,100211.00
2023-03-19T16:49:49.640Z,100228.00
2023-03-19T16:52:20.342Z,100224.00
2023-03-19T16:54:48.283Z,100224.00
2023-03-19T16:57:16.956Z,100239.00
2023-03-19T16:59:45.642Z,100241.00
2023-03-19T17:02:13.939Z,100228.00
2023-03-19T17:04:41.488Z,100231.00
2023-03-19T17:07:09.088Z,100231.00
2023-03-19T17:09:37.579Z,100235.00
2023-03-19T17:12:07.063Z,100237.00
2023-03-19T17:14:35.140Z,100238.00
2023-03-19T17:17:02.798Z,100233.00
2023-03-19T17:19:34.990Z,100242.00
2023-03-19T17:22:02.844Z,100240.00
2023-03-19T17:24:32.132Z,100238.00
2023-03-19T17:27:02.366Z,100253.00
2023-03-19T17:29:30.591Z,100250.00
2023-03-19T17:32:01.069Z,100245.00
2023-03-19T17:34:31.161Z,100255.00
2023-03-19T17:37:00.574Z,100246.00
2023-03-19T17:39:30.747Z,100251.00
2023-03-19T17:41:59.044Z,100242.00
2023-03-19T17:44:27.253Z,100243.00
2023-03-19T17:46:55.679Z,100255.00
2023-03-19T17:49:26.961Z,100252.00
2023-03-19T17:51:54.677Z,100247.00
2023-03-19T17:54:22.426Z,100251.00
2023-03-19T17:56:49.816Z,100244.00
2023-03-19T17:59:17.795Z,100237.00
2023-03-19T18:01:46.570Z,100246.00
2023-03-19T18:04:15.797Z,100242.00
2023-03-19T18:06:46.012Z,100257.00
2023-03-19T18:09:20.261Z,100254.00
2023-03-19T18:11:47.742Z,100250.00
2023-03-19T18:14:15.807Z,100245.00
2023-03-19T18:16:43.784Z,100255.00
2023-03-19T18:19:19.620Z,100257.00
2023-03-19T18:21:47.054Z,100257.00
2023-03-19T18:24:14.311Z,100254.00
2023-03-19T18:26:41.662Z,100255.00
2023-03-19T18:29:08.913Z,100257.00
2023-03-19T18:31:36.939Z,100261.00
2023-03-19T18:34:06.186Z,100257.00
2023-03-19T18:36:34.261Z,100263.00
2023-03-19T18:39:01.625Z,100268.00
2023-03-19T18:41:29.374Z,100261.00
2023-03-19T18:43:56.854Z,100263.00
2023-03-19T18:46:30.403Z,100266.00
2023-03-19T18:49:01.623Z,100264.00
2023-03-19T18:51:29.591Z,100258.00
2023-03-19T18:53:58.208Z,100258.00
2023-03-19T18:56:29.206Z,100262.00
2023-03-19T18:58:58.337Z,100257.00
2023-03-19T19:01:27.331Z,100258.00
2023-03-19T19:03:55.296Z,100259.00
2023-03-19T19:06:33.364Z,100263.00
2023-03-19T19:09:12.303Z,100265.00
2023-03-19T19:11:40.509Z,100274.00
2023-03-19T19:14:15.740Z,100277.00
2023-03-19T19:16:43.168Z,100278.00
2023-03-19T19:19:16.233Z,100283.00
2023-03-19T19:21:44.283Z,100283.00
2023-03-19T19:24:14.123Z,100288.00
2023-03-19T19:26:43.836Z,100285.00
2023-03-19T19:29:15.657Z,100281.00
2023-03-19T19:31:43.670Z,100287.00
2023-03-19T19:34:14.506Z,100289.00
2023-03-19T19:36:41.812Z,100294.00
2023-03-19T19:39:09.947Z,100297.00
2023-03-19T19:41:37.898Z,100292.00
2023-03-19T19:44:05.584Z,100287.00
2023-03-19T19:46:33.208Z,100288.00
2023-03-19T19:49:00.686Z,100294.00
2023-03-19T19:51:28.628Z,100298.00
2023-03-19T19:53:55.932Z,100292.00
2023-03-19T19:56:25.901Z,100299.00
2023-03-19T19:58:54.669Z,100306.00
2023-03-19T20:01:23.538Z,100298.00
2023-03-19T20:03:51.876Z,100310.00
2023-03-19T20:06:19.640Z,100303.00
2023-03-19T20:08:48.618Z,100314.00
2023-03-19T20:11:18.343Z,100300.00
2023-03-19T20:13:49.262Z,100314.00
2023-03-19T20:16:17.137Z,100307.00
2023-03-19T20:18:45.029Z,100308.00
2023-03-19T20:21:12.987Z,100311.00
2023-03-19T20:23:42.088Z,100312.00
2023-03-19T20:26:12.655Z,100311.00
2023-03-19T20:28:40.373Z,100312.00
2023-03-19T20:31:12.341Z,100310.00
2023-03-19T20:33:39.615Z,100309.00
2023-03-19T20:36:08.687Z,100313.00
2023-03-19T20:38:35.997Z,100308.00
2023-03-19T20:41:03.613Z,100308.00
2023-03-19T20:43:33.978Z,100304.00
2023-03-19T20:46:04.439Z,100305.00
2023-03-19T20:48:33.590Z,100307.00
2023-03-19T20:51:01.719Z,100302.00
2023-03-19T20:53:29.881Z,100312.00
2023-03-19T20:56:03.352Z,100314.00
2023-03-19T20:58:34.116Z,100315.00
2023-03-19T21:01:02.555Z,100308.00
2023-03-19T21:03:31.770Z,100309.00
2023-03-19T21:06:01.269Z,100311.00
2023-03-19T21:08:33.303Z,100309.00
2023-03-19T21:11:01.780Z,100310.00
2023-03-19T21:13:29.825Z,100306.00
2023-03-19T21:15:57.365Z,100306.00
2023-03-19T21:18:24.747Z,100303.00
2023-03-19T21:20:56.115Z,100305.00
2023-03-19T21:23:27.357Z,100303.00
2023-03-19T21:25:55.443Z,100306.00
2023-03-19T21:28:25.914Z,100299.00
2023-03-19T21:30:53.406Z,100301.00
2023-03-19T21:33:23.906Z,100302.00
2023-03-19T21:35:52.689Z,100306.00
2023-03-19T21:38:21.101Z,100304.00
2023-03-19T21:40:49.756Z,100302.00
2023-03-19T21:43:20.804Z,100306.00
2023-03-19T21:45:50.875Z,100302.00
2023-03-19T21:48:28.437Z,100303.00
2023-03-19T21:50:56.870Z,100307.00
2023-03-19T21:53:24.824Z,100302.00
2023-03-19T21:55:53.398Z,100309.00
2023-03-19T21:58:28.846Z,100306.00
2023-03-19T22:00:56.481Z,100310.00
2023-03-19T22:03:26.823Z,100310.00
2023-03-19T22:05:56.129Z,100310.00
2023-03-19T22:08:25.500Z,100310.00
2023-03-19T22:10:56.397Z,100307.00
2023-03-19T22:13:26.961Z,100302.00
2023-03-19T22:15:56.083Z,100317.00
2023-03-19T22:18:23.444Z,100308.00
2023-03-19T22:20:51.186Z,100304.00
2023-03-19T22:23:20.314Z,100310.00
2023-03-19T22:25:49.810Z,100306.00
2023-03-19T22:28:28.219Z,100318.00
2023-03-19T22:30:55.648Z,100307.00
2023-03-19T22:33:24.981Z,100302.00
2023-03-19T22:35:52.688Z,100315.00
2023-03-19T22:38:22.561Z,100306.00
2023-03-19T22:40:52.269Z,100308.00
2023-03-19T22:43:26.943Z,100307.00
2023-03-19T22:45:57.906Z,100297.00
2023-03-19T22:48:25.382Z,100307.00
2023-03-19T22:50:52.710Z,100301.00
2023-03-19T22:53:23.872Z,100292.00
2023-03-19T22:55:53.248Z,100297.00
2023-03-19T22:58:20.663Z,100301.00
2023-03-19T23:00:48.932Z,100301.00
2023-03-19T23:03:20.723Z,100291.00
2023-03-19T23:05:53.077Z,100298.00
2023-03-19T23:08:22.113Z,100289.00
2023-03-19T23:10:50.456Z,100303.00
2023-03-19T23:13:17.816Z,100303.00
2023-03-19T23:15:47.123Z,100297.00
2023-03-19T23:18:19.239Z,100304.00
2023-03-19T23:20:47.070Z,100298.00
2023-03-19T23:23:15.982Z,100300.00
2023-03-19T23:25:45.294Z,100303.00
2023-03-19T23:28:19.131Z,100301.00
2023-03-19T23:30:47.248Z,100306.00
2023-03-19T23:33:15.883Z,100293.00
2023-03-19T23:35:44.190Z,100301.00
2023-03-19T23:38:12.014Z,100302.00
2023-03-19T23:40:43.346Z,100298.00
2023-03-19T23:43:18.926Z,100302.00
2023-03-19T23:45:47.604Z,100300.00
2023-03-19T23:48:17.153Z,100305.00
2023-03-19T23:50:46.628Z,100299.00
2023-03-19T23:53:19.026Z,100301.00
2023-03-19T23:55:47.742Z,100309.00
2023-03-19T23:58:16.474Z,100302.00
